Time,TemperatureF,DewpointF,PressureIn,WindDirection,WindDirectionDegrees,WindSpeedMPH,WindSpeedGustMPH,Humidity,HourlyPrecipIn,Conditions,Clouds,dailyrainin,SoftwareType,DateUTC
2013-10-02 00:00:00,66.5,62.2,30.08,WNW,300,0.0,0.0,86,0.00,,,0.00,Wunderground v.1.15,2013-10-02 04:00:00,
2013-10-02 00:05:00,66.3,62.0,30.08,WNW,299,0.0,0.0,86,0.00,,,0.00,Wunderground v.1.15,2013-10-02 04:05:00,
2013-10-02 00:10:00,66.2,62.2,30.08,WNW,300,0.0,1.0,87,0.00,,,0.00,Wunderground v.1.15,2013-10-02 04:10:00,
2013-10-02 00:20:00,66.2,61.9,30.08,WNW,300,0.0,0.0,86,0.00,,,0.00,Wunderground v.1.15,2013-10-02 04:20:00,
2013-10-02 00:25:00,66.6,62.6,30.08,WNW,301,0.0,0.0,87,0.00,,,0.00,Wunderground v.1.15,2013-10-02 04:25:00,
2013-10-02 00:30:00,66.5,62.5,30.07,WNW,301,1.0,1.0,87,0.00,,,0.00,Wunderground v.1.15,2013-10-02 04:30:00,
2013-10-02 00:35:00,66.3,62.3,30.08,NW,306,1.0,1.0,87,0.00,,,0.00,Wunderground v.1.15,2013-10-02 04:35:00,
2013-10-02 00:40:00,65.9,61.9,30.07,NW,307,0.0,0.0,87,0.00,,,0.00,Wunderground v.1.15,2013-10-02 04:40:00,
2013-10-02 00:50:00,65.4,61.8,30.08,NW,321,1.0,2.0,88,0.00,,,0.00,Wunderground v.1.15,2013-10-02 04:50:00,
2013-10-02 01:00:00,65.0,61.4,30.07,WNW,295,1.0,1.0,88,0.00,,,0.00,Wunderground v.1.15,2013-10-02 05:00:00,
2013-10-02 01:10:00,64.7,61.1,30.08,WNW,295,1.0,1.0,88,0.00,,,0.00,Wunderground v.1.15,2013-10-02 05:10:00,
2013-10-02 01:20:00,64.3,61.0,30.08,NW,315,0.0,1.0,89,0.00,,,0.00,Wunderground v.1.15,2013-10-02 05:20:00,
2013-10-02 01:25:00,64.4,61.1,30.08,NW,326,1.0,2.0,89,0.00,,,0.00,Wunderground v.1.15,2013-10-02 05:25:00,
2013-10-02 01:35:00,63.9,60.6,30.08,NNW,327,1.0,1.0,89,0.00,,,0.00,Wunderground v.1.15,2013-10-02 05:35:00,
2013-10-02 01:45:00,63.8,60.5,30.08,NNW,328,1.0,1.0,89,0.00,,,0.00,Wunderground v.1.15,2013-10-02 05:45:00,
2013-10-02 01:55:00,63.5,60.2,30.08,NNW,337,2.0,3.0,89,0.00,,,0.00,Wunderground v.1.15,2013-10-02 05:55:00,
2013-10-02 02:00:00,63.4,60.1,30.08,North,351,2.0,2.0,89,0.00,,,0.00,Wunderground v.1.15,2013-10-02 06:00:00,
2013-10-02 02:10:00,63.1,59.8,30.08,NNW,342,2.0,2.0,89,0.00,,,0.00,Wunderground v.1.15,2013-10-02 06:10:00,
2013-10-02 02:15:00,63.0,59.7,30.08,NNW,340,2.0,2.0,89,0.00,,,0.00,Wunderground v.1.15,2013-10-02 06:15:00,
2013-10-02 02:20:00,62.9,59.6,30.08,NNW,338,2.0,2.0,89,0.00,,,0.00,Wunderground v.1.15,2013-10-02 06:20:00,
2013-10-02 02:30:00,62.8,59.5,30.08,NNW,347,3.0,4.0,89,0.00,,,0.00,Wunderground v.1.15,2013-10-02 06:30:00,
2013-10-02 02:35:00,62.6,59.3,30.07,NNW,341,2.0,4.0,89,0.00,,,0.00,Wunderground v.1.15,2013-10-02 06:35:00,
2013-10-02 02:40:00,62.5,58.9,30.07,NNW,338,3.0,3.0,88,0.00,,,0.00,Wunderground v.1.15,2013-10-02 06:40:00,
2013-10-02 02:45:00,62.5,59.2,30.07,NNW,338,3.0,3.0,89,0.00,,,0.00,Wunderground v.1.15,2013-10-02 06:45:00,
2013-10-02 02:50:00,62.5,59.2,30.07,NW,326,2.0,3.0,89,0.00,,,0.00,Wunderground v.1.15,2013-10-02 06:50:00,
2013-10-02 03:00:00,62.8,59.5,30.07,NNW,334,2.0,2.0,89,0.00,,,0.00,Wunderground v.1.15,2013-10-02 07:00:00,
2013-10-02 03:10:00,62.5,59.2,30.07,NNW,341,2.0,3.0,89,0.00,,,0.00,Wunderground v.1.15,2013-10-02 07:10:00,
2013-10-02 03:20:00,62.3,58.7,30.07,North,351,2.0,2.0,88,0.00,,,0.00,Wunderground v.1.15,2013-10-02 07:20:00,
2013-10-02 03:30:00,62.3,58.7,30.06,NW,323,1.0,1.0,88,0.00,,,0.00,Wunderground v.1.15,2013-10-02 07:30:00,
2013-10-02 03:35:00,62.3,58.7,30.06,NNW,339,1.0,4.0,88,0.00,,,0.00,Wunderground v.1.15,2013-10-02 07:35:00,
2013-10-02 03:40:00,62.4,58.8,30.06,NNW,330,2.0,2.0,88,0.00,,,0.00,Wunderground v.1.15,2013-10-02 07:40:00,
2013-10-02 03:45:00,62.6,59.0,30.06,North,356,2.0,2.0,88,0.00,,,0.00,Wunderground v.1.15,2013-10-02 07:45:00,
2013-10-02 03:50:00,62.5,58.9,30.06,NNW,341,2.0,3.0,88,0.00,,,0.00,Wunderground v.1.15,2013-10-02 07:50:00,
2013-10-02 03:55:00,62.5,58.9,30.06,NNW,330,3.0,3.0,88,0.00,,,0.00,Wunderground v.1.15,2013-10-02 07:55:00,
2013-10-02 04:00:00,62.4,58.8,30.06,NNW,340,3.0,3.0,88,0.00,,,0.00,Wunderground v.1.15,2013-10-02 08:00:00,
2013-10-02 04:10:00,62.4,58.8,30.06,NNW,329,2.0,2.0,88,0.00,,,0.00,Wunderground v.1.15,2013-10-02 08:10:00,
2013-10-02 04:20:00,62.3,58.7,30.06,NNW,336,1.0,1.0,88,0.00,,,0.00,Wunderground v.1.15,2013-10-02 08:20:00,
2013-10-02 04:30:00,62.3,58.7,30.06,NNW,333,1.0,1.0,88,0.00,,,0.00,Wunderground v.1.15,2013-10-02 08:30:00,
2013-10-02 04:40:00,62.1,58.5,30.06,NNW,345,1.0,2.0,88,0.00,,,0.00,Wunderground v.1.15,2013-10-02 08:40:00,
2013-10-02 04:45:00,62.0,58.4,30.06,NNW,346,1.0,2.0,88,0.00,,,0.00,Wunderground v.1.15,2013-10-02 08:45:00,
2013-10-02 04:50:00,62.0,58.4,30.06,NNW,340,1.0,2.0,88,0.00,,,0.00,Wunderground v.1.15,2013-10-02 08:50:00,
2013-10-02 04:55:00,61.9,58.3,30.06,NNW,341,2.0,2.0,88,0.00,,,0.00,Wunderground v.1.15,2013-10-02 08:55:00,
2013-10-02 05:00:00,61.9,58.3,30.06,NW,323,2.0,2.0,88,0.00,,,0.00,Wunderground v.1.15,2013-10-02 09:00:00,
2013-10-02 05:10:00,61.7,58.1,30.06,North,349,1.0,3.0,88,0.00,,,0.00,Wunderground v.1.15,2013-10-02 09:10:00,
2013-10-02 05:20:00,61.8,58.2,30.06,North,356,1.0,1.0,88,0.00,,,0.00,Wunderground v.1.15,2013-10-02 09:20:00,
2013-10-02 05:30:00,61.7,58.4,30.06,North,354,1.0,2.0,89,0.00,,,0.00,Wunderground v.1.15,2013-10-02 09:30:00,
2013-10-02 05:35:00,61.8,58.5,30.06,NNW,342,2.0,2.0,89,0.00,,,0.00,Wunderground v.1.15,2013-10-02 09:35:00,
2013-10-02 05:45:00,61.7,58.4,30.07,NNW,342,1.0,3.0,89,0.00,,,0.00,Wunderground v.1.15,2013-10-02 09:45:00,
2013-10-02 05:55:00,61.7,58.4,30.07,NNW,348,1.0,2.0,89,0.00,,,0.00,Wunderground v.1.15,2013-10-02 09:55:00,
2013-10-02 06:00:00,61.7,58.4,30.07,North,11,2.0,2.0,89,0.00,,,0.00,Wunderground v.1.15,2013-10-02 10:00:00,
2013-10-02 06:10:00,61.6,58.3,30.07,NNE,17,1.0,1.0,89,0.00,,,0.00,Wunderground v.1.15,2013-10-02 10:10:00,
2013-10-02 06:15:00,61.6,58.3,30.07,North,356,2.0,2.0,89,0.00,,,0.00,Wunderground v.1.15,2013-10-02 10:15:00,
2013-10-02 06:20:00,61.6,58.3,30.07,North,8,2.0,2.0,89,0.00,,,0.00,Wunderground v.1.15,2013-10-02 10:20:00,
2013-10-02 06:25:00,61.5,58.2,30.07,NNW,342,1.0,2.0,89,0.00,,,0.00,Wunderground v.1.15,2013-10-02 10:25:00,
2013-10-02 06:30:00,61.5,58.2,30.07,NW,315,1.0,2.0,89,0.00,,,0.00,Wunderground v.1.15,2013-10-02 10:30:00,
2013-10-02 06:35:00,61.6,58.3,30.07,NNW,333,1.0,2.0,89,0.00,,,0.00,Wunderground v.1.15,2013-10-02 10:35:00,
2013-10-02 06:40:00,61.7,58.4,30.07,NW,326,1.0,1.0,89,0.00,,,0.00,Wunderground v.1.15,2013-10-02 10:40:00,
2013-10-02 06:45:00,62.0,58.7,30.07,North,359,1.0,2.0,89,0.00,,,0.00,Wunderground v.1.15,2013-10-02 10:45:00,
2013-10-02 06:55:00,62.4,58.8,30.07,NNE,13,2.0,2.0,88,0.00,,,0.00,Wunderground v.1.15,2013-10-02 10:55:00,
2013-10-02 07:00:00,62.4,58.8,30.08,NW,315,2.0,2.0,88,0.00,,,0.00,Wunderground v.1.15,2013-10-02 11:00:00,
2013-10-02 07:10:00,62.8,58.9,30.08,NW,311,2.0,7.0,87,0.00,,,0.00,Wunderground v.1.15,2013-10-02 11:10:00,
2013-10-02 07:15:00,62.9,59.0,30.08,NW,315,3.0,7.0,87,0.00,,,0.00,Wunderground v.1.15,2013-10-02 11:15:00,
2013-10-02 07:20:00,62.9,59.0,30.08,NNW,342,3.0,3.0,87,0.00,,,0.00,Wunderground v.1.15,2013-10-02 11:20:00,
2013-10-02 07:25:00,62.8,58.9,30.08,NW,311,2.0,4.0,87,0.00,,,0.00,Wunderground v.1.15,2013-10-02 11:25:00,
2013-10-02 07:30:00,62.8,58.9,30.08,North,356,2.0,2.0,87,0.00,,,0.00,Wunderground v.1.15,2013-10-02 11:30:00,
2013-10-02 07:35:00,62.8,58.9,30.08,North,349,3.0,3.0,87,0.00,,,0.00,Wunderground v.1.15,2013-10-02 11:35:00,
2013-10-02 07:40:00,62.8,58.9,30.08,NNW,342,2.0,2.0,87,0.00,,,0.00,Wunderground v.1.15,2013-10-02 11:40:00,
2013-10-02 07:45:00,62.8,58.9,30.09,NW,321,2.0,3.0,87,0.00,,,0.00,Wunderground v.1.15,2013-10-02 11:45:00,
2013-10-02 07:50:00,63.1,59.2,30.09,NW,323,2.0,2.0,87,0.00,,,0.00,Wunderground v.1.15,2013-10-02 11:50:00,
2013-10-02 07:55:00,63.4,59.5,30.09,NW,325,2.0,2.0,87,0.00,,,0.00,Wunderground v.1.15,2013-10-02 11:55:00,
2013-10-02 08:00:00,63.7,59.8,30.09,North,352,1.0,1.0,87,0.00,,,0.00,Wunderground v.1.15,2013-10-02 12:00:00,
2013-10-02 08:10:00,64.3,60.0,30.09,NNW,331,2.0,3.0,86,0.00,,,0.00,Wunderground v.1.15,2013-10-02 12:10:00,
2013-10-02 08:20:00,65.2,60.6,30.10,NW,311,2.0,3.0,85,0.00,,,0.00,Wunderground v.1.15,2013-10-02 12:20:00,
2013-10-02 08:30:00,66.2,61.2,30.10,NNW,335,2.0,4.0,84,0.00,,,0.00,Wunderground v.1.15,2013-10-02 12:30:00,
2013-10-02 08:35:00,66.6,61.3,30.10,NW,308,2.0,4.0,83,0.00,,,0.00,Wunderground v.1.15,2013-10-02 12:35:00,
2013-10-02 08:40:00,67.0,61.7,30.11,NNW,332,3.0,3.0,83,0.00,,,0.00,Wunderground v.1.15,2013-10-02 12:40:00,
2013-10-02 08:50:00,67.7,61.7,30.11,North,352,3.0,3.0,81,0.00,,,0.00,Wunderground v.1.15,2013-10-02 12:50:00,
2013-10-02 09:00:00,68.3,61.9,30.11,North,6,3.0,3.0,80,0.00,,,0.00,Wunderground v.1.15,2013-10-02 13:00:00,
2013-10-02 09:10:00,68.8,62.0,30.11,North,1,3.0,3.0,79,0.00,,,0.00,Wunderground v.1.15,2013-10-02 13:10:00,
2013-10-02 09:20:00,69.7,62.5,30.11,North,352,3.0,3.0,78,0.00,,,0.00,Wunderground v.1.15,2013-10-02 13:20:00,
2013-10-02 09:30:00,70.5,62.9,30.11,North,356,4.0,4.0,77,0.00,,,0.00,Wunderground v.1.15,2013-10-02 13:30:00,
2013-10-02 09:35:00,70.9,63.0,30.11,NNW,335,3.0,4.0,76,0.00,,,0.00,Wunderground v.1.15,2013-10-02 13:35:00,
2013-10-02 09:45:00,71.9,63.9,30.11,NW,325,2.0,3.0,76,0.00,,,0.00,Wunderground v.1.15,2013-10-02 13:45:00,
2013-10-02 09:50:00,72.5,64.1,30.11,NNE,20,2.0,2.0,75,0.00,,,0.00,Wunderground v.1.15,2013-10-02 13:50:00,
2013-10-02 09:55:00,73.0,64.2,30.11,NNW,329,2.0,2.0,74,0.00,,,0.00,Wunderground v.1.15,2013-10-02 13:55:00,
2013-10-02 10:00:00,73.3,64.1,30.11,NW,321,2.0,3.0,73,0.00,,,0.00,Wunderground v.1.15,2013-10-02 14:00:00,
2013-10-02 10:10:00,74.2,63.8,30.11,NW,306,2.0,3.0,70,0.00,,,0.00,Wunderground v.1.15,2013-10-02 14:10:00,
2013-10-02 10:15:00,74.3,63.9,30.11,West,278,2.0,3.0,70,0.00,,,0.00,Wunderground v.1.15,2013-10-02 14:15:00,
2013-10-02 10:25:00,75.7,64.8,30.11,WNW,290,1.0,1.0,69,0.00,,,0.00,Wunderground v.1.15,2013-10-02 14:25:00,
2013-10-02 10:30:00,76.2,64.4,30.11,North,354,1.0,1.0,67,0.00,,,0.00,Wunderground v.1.15,2013-10-02 14:30:00,
2013-10-02 10:35:00,77.0,65.2,30.11,NW,314,1.0,2.0,67,0.00,,,0.00,Wunderground v.1.15,2013-10-02 14:35:00,
2013-10-02 10:45:00,77.8,64.6,30.11,West,264,1.0,2.0,64,0.00,,,0.00,Wunderground v.1.15,2013-10-02 14:45:00,
2013-10-02 10:50:00,78.2,65.0,30.11,WNW,285,1.0,1.0,64,0.00,,,0.00,Wunderground v.1.15,2013-10-02 14:50:00,
2013-10-02 10:55:00,78.3,64.7,30.11,WNW,301,1.0,2.0,63,0.00,,,0.00,Wunderground v.1.15,2013-10-02 14:55:00,
2013-10-02 11:00:00,78.6,64.9,30.11,NW,319,2.0,2.0,63,0.00,,,0.00,Wunderground v.1.15,2013-10-02 15:00:00,
2013-10-02 11:10:00,79.0,64.9,30.11,NW,305,1.0,3.0,62,0.00,,,0.00,Wunderground v.1.15,2013-10-02 15:10:00,
2013-10-02 11:15:00,79.3,65.6,30.10,NNE,12,1.0,3.0,63,0.00,,,0.00,Wunderground v.1.15,2013-10-02 15:15:00,
2013-10-02 11:25:00,80.8,67.5,30.10,ENE,69,1.0,1.0,64,0.00,,,0.00,Wunderground v.1.15,2013-10-02 15:25:00,
2013-10-02 11:35:00,80.6,67.7,30.10,SW,214,2.0,4.0,65,0.00,,,0.00,Wunderground v.1.15,2013-10-02 15:35:00,
2013-10-02 11:45:00,80.3,68.3,30.10,SSW,212,3.0,5.0,67,0.00,,,0.00,Wunderground v.1.15,2013-10-02 15:45:00,
2013-10-02 11:50:00,78.9,67.4,30.10,SW,220,4.0,5.0,68,0.00,,,0.00,Wunderground v.1.15,2013-10-02 15:50:00,
2013-10-02 11:55:00,78.5,67.9,30.10,SW,220,5.0,6.0,70,0.00,,,0.00,Wunderground v.1.15,2013-10-02 15:55:00,
2013-10-02 12:00:00,78.6,67.2,30.10,SSW,195,4.0,5.0,68,0.00,,,0.00,Wunderground v.1.15,2013-10-02 16:00:00,
2013-10-02 12:10:00,79.0,68.4,30.09,SW,215,4.0,4.0,70,0.00,,,0.00,Wunderground v.1.15,2013-10-02 16:10:00,
2013-10-02 12:20:00,78.3,68.1,30.09,SSW,211,5.0,5.0,71,0.00,,,0.00,Wunderground v.1.15,2013-10-02 16:20:00,
2013-10-02 12:25:00,78.3,68.1,30.09,SSW,212,6.0,6.0,71,0.00,,,0.00,Wunderground v.1.15,2013-10-02 16:25:00,
2013-10-02 12:30:00,78.3,68.5,30.09,SSW,199,6.0,6.0,72,0.00,,,0.00,Wunderground v.1.15,2013-10-02 16:30:00,
2013-10-02 12:35:00,78.5,68.3,30.09,SSW,205,6.0,6.0,71,0.00,,,0.00,Wunderground v.1.15,2013-10-02 16:35:00,
2013-10-02 12:40:00,78.2,68.4,30.09,SSW,207,5.0,6.0,72,0.00,,,0.00,Wunderground v.1.15,2013-10-02 16:40:00,
2013-10-02 12:50:00,78.3,67.7,30.08,SSW,206,6.0,6.0,70,0.00,,,0.00,Wunderground v.1.15,2013-10-02 16:50:00,
2013-10-02 12:55:00,78.6,68.4,30.08,SSW,208,5.0,6.0,71,0.00,,,0.00,Wunderground v.1.15,2013-10-02 16:55:00,
2013-10-02 13:00:00,78.8,68.2,30.08,South,177,5.0,5.0,70,0.00,,,0.00,Wunderground v.1.15,2013-10-02 17:00:00,
2013-10-02 13:10:00,79.3,68.2,30.07,SSW,210,4.0,5.0,69,0.00,,,0.00,Wunderground v.1.15,2013-10-02 17:10:00,
2013-10-02 13:15:00,79.3,68.7,30.07,SW,233,5.0,6.0,70,0.00,,,0.00,Wunderground v.1.15,2013-10-02 17:15:00,
2013-10-02 13:20:00,79.1,68.5,30.07,SW,215,5.0,6.0,70,0.00,,,0.00,Wunderground v.1.15,2013-10-02 17:20:00,
2013-10-02 13:30:00,79.7,69.0,30.07,ESE,121,4.0,4.0,70,0.00,,,0.00,Wunderground v.1.15,2013-10-02 17:30:00,
2013-10-02 13:40:00,79.7,68.6,30.06,WSW,252,5.0,6.0,69,0.00,,,0.00,Wunderground v.1.15,2013-10-02 17:40:00,
2013-10-02 13:50:00,80.1,69.0,30.06,West,259,7.0,7.0,69,0.00,,,0.00,Wunderground v.1.15,2013-10-02 17:50:00,
2013-10-02 13:55:00,79.9,68.8,30.06,South,173,7.0,7.0,69,0.00,,,0.00,Wunderground v.1.15,2013-10-02 17:55:00,
2013-10-02 14:00:00,79.5,68.4,30.06,SSW,207,7.0,8.0,69,0.00,,,0.00,Wunderground v.1.15,2013-10-02 18:00:00,
2013-10-02 14:10:00,79.6,69.0,30.06,WSW,256,8.0,8.0,70,0.00,,,0.00,Wunderground v.1.15,2013-10-02 18:10:00,
2013-10-02 14:15:00,79.9,68.0,30.05,WSW,239,7.0,8.0,67,0.00,,,0.00,Wunderground v.1.15,2013-10-02 18:15:00,
2013-10-02 14:25:00,80.2,68.2,30.05,SW,220,6.0,7.0,67,0.00,,,0.00,Wunderground v.1.15,2013-10-02 18:25:00,
2013-10-02 14:30:00,80.2,68.7,30.05,SSW,211,6.0,6.0,68,0.00,,,0.00,Wunderground v.1.15,2013-10-02 18:30:00,
2013-10-02 14:35:00,80.3,67.9,30.05,SSW,205,7.0,7.0,66,0.00,,,0.00,Wunderground v.1.15,2013-10-02 18:35:00,
2013-10-02 14:40:00,80.1,68.2,30.05,South,173,7.0,7.0,67,0.00,,,0.00,Wunderground v.1.15,2013-10-02 18:40:00,
2013-10-02 14:45:00,79.9,68.4,30.05,SSW,200,7.0,9.0,68,0.00,,,0.00,Wunderground v.1.15,2013-10-02 18:45:00,
2013-10-02 14:55:00,79.7,69.0,30.04,West,280,7.0,7.0,70,0.00,,,0.00,Wunderground v.1.15,2013-10-02 18:55:00,
2013-10-02 15:00:00,79.8,68.7,30.04,SSW,198,7.0,7.0,69,0.00,,,0.00,Wunderground v.1.15,2013-10-02 19:00:00,
2013-10-02 15:10:00,79.6,68.5,30.04,SSW,195,7.0,7.0,69,0.00,,,0.00,Wunderground v.1.15,2013-10-02 19:10:00,
2013-10-02 15:20:00,79.8,68.7,30.04,East,98,7.0,7.0,69,0.00,,,0.00,Wunderground v.1.15,2013-10-02 19:20:00,
2013-10-02 15:25:00,79.9,69.2,30.04,SSW,201,6.0,9.0,70,0.00,,,0.00,Wunderground v.1.15,2013-10-02 19:25:00,
2013-10-02 15:30:00,79.7,69.0,30.04,SSW,207,7.0,7.0,70,0.00,,,0.00,Wunderground v.1.15,2013-10-02 19:30:00,
2013-10-02 15:35:00,79.6,69.0,30.04,SW,216,8.0,10.0,70,0.00,,,0.00,Wunderground v.1.15,2013-10-02 19:35:00,
2013-10-02 15:40:00,79.5,69.3,30.04,SSE,160,8.0,8.0,71,0.00,,,0.00,Wunderground v.1.15,2013-10-02 19:40:00,
2013-10-02 15:45:00,79.5,68.9,30.04,SW,233,7.0,8.0,70,0.00,,,0.00,Wunderground v.1.15,2013-10-02 19:45:00,
2013-10-02 15:50:00,79.4,69.2,30.04,SW,222,7.0,11.0,71,0.00,,,0.00,Wunderground v.1.15,2013-10-02 19:50:00,
2013-10-02 15:55:00,79.3,68.7,30.04,SSW,198,7.0,11.0,70,0.00,,,0.00,Wunderground v.1.15,2013-10-02 19:55:00,
2013-10-02 16:00:00,79.5,68.9,30.04,NNE,19,8.0,8.0,70,0.00,,,0.00,Wunderground v.1.15,2013-10-02 20:00:00,
2013-10-02 16:10:00,79.7,69.5,30.03,NE,44,7.0,7.0,71,0.00,,,0.00,Wunderground v.1.15,2013-10-02 20:10:00,
2013-10-02 16:15:00,79.7,68.6,30.03,SW,217,6.0,8.0,69,0.00,,,0.00,Wunderground v.1.15,2013-10-02 20:15:00,
2013-10-02 16:20:00,79.6,67.7,30.03,SW,214,7.0,8.0,67,0.00,,,0.00,Wunderground v.1.15,2013-10-02 20:20:00,
2013-10-02 16:30:00,79.5,68.4,30.03,ENE,65,7.0,7.0,69,0.00,,,0.00,Wunderground v.1.15,2013-10-02 20:30:00,
2013-10-02 16:35:00,79.4,67.9,30.03,SSW,197,7.0,9.0,68,0.00,,,0.00,Wunderground v.1.15,2013-10-02 20:35:00,
2013-10-02 16:40:00,79.4,68.3,30.03,South,188,7.0,7.0,69,0.00,,,0.00,Wunderground v.1.15,2013-10-02 20:40:00,
2013-10-02 16:45:00,79.3,68.7,30.03,SW,219,7.0,9.0,70,0.00,,,0.00,Wunderground v.1.15,2013-10-02 20:45:00,
2013-10-02 16:50:00,79.3,68.7,30.03,SW,225,6.0,7.0,70,0.00,,,0.00,Wunderground v.1.15,2013-10-02 20:50:00,
2013-10-02 17:00:00,79.4,68.8,30.03,South,176,5.0,5.0,70,0.00,,,0.00,Wunderground v.1.15,2013-10-02 21:00:00,
2013-10-02 17:10:00,79.5,68.4,30.04,ENE,73,3.0,3.0,69,0.00,,,0.00,Wunderground v.1.15,2013-10-02 21:10:00,
2013-10-02 17:15:00,79.4,67.5,30.04,ENE,75,3.0,3.0,67,0.00,,,0.00,Wunderground v.1.15,2013-10-02 21:15:00,
2013-10-02 17:20:00,79.4,67.9,30.04,SSW,193,3.0,3.0,68,0.00,,,0.00,Wunderground v.1.15,2013-10-02 21:20:00,
2013-10-02 17:30:00,79.1,68.1,30.04,NNE,30,3.0,3.0,69,0.00,,,0.00,Wunderground v.1.15,2013-10-02 21:30:00,
2013-10-02 17:35:00,79.0,68.0,30.04,East,96,3.0,5.0,69,0.00,,,0.00,Wunderground v.1.15,2013-10-02 21:35:00,
2013-10-02 17:40:00,78.9,67.0,30.04,SSW,196,3.0,3.0,67,0.00,,,0.00,Wunderground v.1.15,2013-10-02 21:40:00,
2013-10-02 17:45:00,78.9,67.9,30.04,NW,312,3.0,4.0,69,0.00,,,0.00,Wunderground v.1.15,2013-10-02 21:45:00,
2013-10-02 17:50:00,78.9,67.9,30.04,SSE,148,3.0,3.0,69,0.00,,,0.00,Wunderground v.1.15,2013-10-02 21:50:00,
2013-10-02 17:55:00,78.9,67.9,30.04,ESE,111,2.0,3.0,69,0.00,,,0.00,Wunderground v.1.15,2013-10-02 21:55:00,
2013-10-02 18:00:00,78.9,67.9,30.04,ENE,57,2.0,3.0,69,0.00,,,0.00,Wunderground v.1.15,2013-10-02 22:00:00,
2013-10-02 18:10:00,78.7,68.1,30.04,WSW,253,2.0,3.0,70,0.00,,,0.00,Wunderground v.1.15,2013-10-02 22:10:00,
2013-10-02 18:20:00,78.3,67.7,30.04,ENE,57,2.0,2.0,70,0.00,,,0.00,Wunderground v.1.15,2013-10-02 22:20:00,
2013-10-02 18:30:00,77.8,67.6,30.05,WSW,246,2.0,2.0,71,0.00,,,0.00,Wunderground v.1.15,2013-10-02 22:30:00,
2013-10-02 18:35:00,77.5,67.8,30.05,SW,215,2.0,2.0,72,0.00,,,0.00,Wunderground v.1.15,2013-10-02 22:35:00,
2013-10-02 18:40:00,77.1,67.4,30.05,West,262,2.0,6.0,72,0.00,,,0.00,Wunderground v.1.15,2013-10-02 22:40:00,
2013-10-02 18:45:00,76.7,67.8,30.05,NW,321,2.0,6.0,74,0.00,,,0.00,Wunderground v.1.15,2013-10-02 22:45:00,
2013-10-02 18:50:00,76.4,67.5,30.05,NNE,25,2.0,2.0,74,0.00,,,0.00,Wunderground v.1.15,2013-10-02 22:50:00,
2013-10-02 18:55:00,76.1,67.2,30.05,West,262,2.0,6.0,74,0.00,,,0.00,Wunderground v.1.15,2013-10-02 22:55:00,
2013-10-02 19:00:00,76.0,67.5,30.05,NE,44,2.0,2.0,75,0.00,,,0.00,Wunderground v.1.15,2013-10-02 23:00:00,
2013-10-02 19:10:00,75.7,67.6,30.05,NW,322,2.0,2.0,76,0.00,,,0.00,Wunderground v.1.15,2013-10-02 23:10:00,
2013-10-02 19:20:00,75.6,67.9,30.05,SE,129,2.0,3.0,77,0.00,,,0.00,Wunderground v.1.15,2013-10-02 23:20:00,
2013-10-02 19:30:00,75.5,67.8,30.06,SW,236,2.0,2.0,77,0.00,,,0.00,Wunderground v.1.15,2013-10-02 23:30:00,
2013-10-02 19:40:00,75.4,67.7,30.06,SE,139,3.0,3.0,77,0.00,,,0.00,Wunderground v.1.15,2013-10-02 23:40:00,
2013-10-02 19:45:00,75.3,67.6,30.06,NE,53,3.0,3.0,77,0.00,,,0.00,Wunderground v.1.15,2013-10-02 23:45:00,
2013-10-02 19:50:00,75.4,68.1,30.06,WNW,295,2.0,2.0,78,0.00,,,0.00,Wunderground v.1.15,2013-10-02 23:50:00,
2013-10-02 20:00:00,75.2,67.9,30.06,WSW,243,2.0,3.0,78,0.00,,,0.00,Wunderground v.1.15,2013-10-03 00:00:00,
2013-10-02 20:10:00,75.1,68.1,30.06,ENE,65,2.0,2.0,79,0.00,,,0.00,Wunderground v.1.15,2013-10-03 00:10:00,
2013-10-02 20:15:00,75.1,68.1,30.07,NE,39,2.0,2.0,79,0.00,,,0.00,Wunderground v.1.15,2013-10-03 00:15:00,
2013-10-02 20:20:00,75.1,68.1,30.07,East,94,2.0,2.0,79,0.00,,,0.00,Wunderground v.1.15,2013-10-03 00:20:00,
2013-10-02 20:25:00,75.0,68.0,30.07,NNE,33,2.0,2.0,79,0.00,,,0.00,Wunderground v.1.15,2013-10-03 00:25:00,
2013-10-02 20:30:00,75.0,68.0,30.07,NNW,342,2.0,2.0,79,0.00,,,0.00,Wunderground v.1.15,2013-10-03 00:30:00,
2013-10-02 20:40:00,74.9,68.3,30.07,NW,314,2.0,2.0,80,0.00,,,0.00,Wunderground v.1.15,2013-10-03 00:40:00,
2013-10-02 20:45:00,74.9,68.3,30.07,ENE,70,2.0,2.0,80,0.00,,,0.00,Wunderground v.1.15,2013-10-03 00:45:00,
2013-10-02 20:50:00,74.8,67.8,30.07,ENE,59,2.0,2.0,79,0.00,,,0.00,Wunderground v.1.15,2013-10-03 00:50:00,
2013-10-02 20:55:00,74.8,68.2,30.07,North,11,2.0,2.0,80,0.00,,,0.00,Wunderground v.1.15,2013-10-03 00:55:00,
2013-10-02 21:00:00,74.7,68.1,30.07,SW,233,1.0,2.0,80,0.00,,,0.00,Wunderground v.1.15,2013-10-03 01:00:00,
2013-10-02 21:10:00,74.6,68.0,30.08,West,263,1.0,1.0,80,0.00,,,0.00,Wunderground v.1.15,2013-10-03 01:10:00,
2013-10-02 21:15:00,74.6,68.4,30.08,East,91,2.0,2.0,81,0.00,,,0.00,Wunderground v.1.15,2013-10-03 01:15:00,
2013-10-02 21:20:00,74.7,68.5,30.08,SW,217,1.0,1.0,81,0.00,,,0.00,Wunderground v.1.15,2013-10-03 01:20:00,
2013-10-02 21:25:00,74.6,68.4,30.08,East,87,1.0,2.0,81,0.00,,,0.00,Wunderground v.1.15,2013-10-03 01:25:00,
2013-10-02 21:30:00,74.6,68.7,30.08,NW,325,1.0,2.0,82,0.00,,,0.00,Wunderground v.1.15,2013-10-03 01:30:00,
2013-10-02 21:40:00,74.5,68.6,30.08,NE,50,1.0,1.0,82,0.00,,,0.00,Wunderground v.1.15,2013-10-03 01:40:00,
2013-10-02 21:45:00,74.4,68.5,30.08,East,83,1.0,3.0,82,0.00,,,0.00,Wunderground v.1.15,2013-10-03 01:45:00,
2013-10-02 21:50:00,74.4,68.5,30.08,East,95,1.0,1.0,82,0.00,,,0.00,Wunderground v.1.15,2013-10-03 01:50:00,
2013-10-02 21:55:00,74.4,68.5,30.08,ENE,76,1.0,1.0,82,0.00,,,0.00,Wunderground v.1.15,2013-10-03 01:55:00,
2013-10-02 22:00:00,74.3,68.8,30.08,NW,326,1.0,1.0,83,0.00,,,0.00,Wunderground v.1.15,2013-10-03 02:00:00,
2013-10-02 22:10:00,74.3,68.8,30.09,North,9,1.0,1.0,83,0.00,,,0.00,Wunderground v.1.15,2013-10-03 02:10:00,
2013-10-02 22:15:00,74.2,68.7,30.09,SSE,163,2.0,4.0,83,0.00,,,0.00,Wunderground v.1.15,2013-10-03 02:15:00,
2013-10-02 22:20:00,74.3,68.8,30.09,WNW,298,2.0,2.0,83,0.00,,,0.00,Wunderground v.1.15,2013-10-03 02:20:00,
2013-10-02 22:25:00,74.2,69.1,30.09,SW,236,1.0,2.0,84,0.00,,,0.00,Wunderground v.1.15,2013-10-03 02:25:00,
2013-10-02 22:30:00,74.2,69.1,30.09,NE,44,1.0,1.0,84,0.00,,,0.00,Wunderground v.1.15,2013-10-03 02:30:00,
2013-10-02 22:35:00,74.1,69.0,30.09,ESE,118,1.0,1.0,84,0.00,,,0.00,Wunderground v.1.15,2013-10-03 02:35:00,
2013-10-02 22:45:00,74.1,69.0,30.09,WSW,255,1.0,2.0,84,0.00,,,0.00,Wunderground v.1.15,2013-10-03 02:45:00,
2013-10-02 22:50:00,74.1,69.0,30.09,SSW,204,1.0,1.0,84,0.00,,,0.00,Wunderground v.1.15,2013-10-03 02:50:00,
2013-10-02 22:55:00,74.1,69.3,30.09,SW,226,1.0,2.0,85,0.00,,,0.00,Wunderground v.1.15,2013-10-03 02:55:00,
2013-10-02 23:00:00,74.0,69.2,30.10,ESE,115,1.0,1.0,85,0.00,,,0.00,Wunderground v.1.15,2013-10-03 03:00:00,
2013-10-02 23:10:00,73.9,69.1,30.10,SW,229,1.0,1.0,85,0.00,,,0.00,Wunderground v.1.15,2013-10-03 03:10:00,
2013-10-02 23:20:00,73.8,69.0,30.10,SE,145,1.0,1.0,85,0.00,,,0.00,Wunderground v.1.15,2013-10-03 03:20:00,
2013-10-02 23:25:00,73.8,69.0,30.10,WNW,291,1.0,1.0,85,0.00,,,0.00,Wunderground v.1.15,2013-10-03 03:25:00,
2013-10-02 23:30:00,73.2,68.8,30.10,WNW,291,0.0,0.0,86,0.00,,,0.00,Wunderground v.1.15,2013-10-03 03:30:00,
2013-10-02 23:35:00,72.8,68.4,30.10,WNW,294,1.0,1.0,86,0.00,,,0.00,Wunderground v.1.15,2013-10-03 03:35:00,
2013-10-02 23:45:00,71.7,67.6,30.10,WNW,301,1.0,2.0,87,0.00,,,0.00,Wunderground v.1.15,2013-10-03 03:45:00,
2013-10-02 23:50:00,71.2,67.1,30.10,NW,321,1.0,1.0,87,0.00,,,0.00,Wunderground v.1.15,2013-10-03 03:50:00,
2013-10-02 23:55:00,70.7,67.0,30.10,NW,321,1.0,1.0,88,0.00,,,0.00,Wunderground v.1.15,2013-10-03 03:55:00,